M/V Tuna — XUGC9 — position and weather

sailwx.info

Track history (hours):
 
Tides and Currents Weather Stations Pressure Air Temp Water Temp Dewpoint Dewpoint Depression Visibility Wind Speed Wind Dir Waves Ship Positions

M/V Tuna

Last reported at 2015-Jul-30 02:05 UTC. Time now 2015-Jul-30 14:14 UTC.
Position N 46°11' E 030°22'.

Length 114 m; draft 2.4 m.

Type: Cargo ship. MMSI: 514778000.

Date/timePositionNaut miles runAvg speedWind from/ knotsBaromVisibWave heightAir tempDewpointWater temp
2015-Jul-30 02:05N 46°11' E 030°22'0 0.0
2015-Jul-30 01:26N 46°11' E 030°22'0 0.0
2015-Jul-29 23:32N 46°11' E 030°22'0 0.0
2015-Jul-29 21:12N 46°11' E 030°22'  
2015-Jul-26 20:33N 44°54' E 029°55'9 6.8
2015-Jul-26 19:12N 44°46' E 029°51'12 7.0
2015-Jul-26 17:33N 44°34' E 029°48'224 5.5
2015-Jul-25 00:31N 40°52' E 029°11'0 0.0
2015-Jul-24 23:33N 40°52' E 029°11'0 0.0
2015-Jul-24 22:29N 40°52' E 029°11'0 0.0
2015-Jul-24 21:34N 40°52' E 029°11'0 0.0
2015-Jul-24 20:32N 40°52' E 029°11'0 0.0
2015-Jul-24 19:28N 40°52' E 029°11'0 0.0
2015-Jul-24 18:28N 40°52' E 029°11'0 0.0
2015-Jul-24 17:31N 40°52' E 029°11'0 0.0
2015-Jul-24 16:34N 40°52' E 029°11'0 0.0
2015-Jul-24 15:24N 40°52' E 029°11'0 0.0
2015-Jul-24 14:31N 40°52' E 029°11'0 0.0
2015-Jul-24 13:30N 40°52' E 029°11'0 0.1
2015-Jul-24 12:18N 40°52' E 029°11'0 0.0
2015-Jul-24 11:18N 40°52' E 029°11'0 0.0
2015-Jul-24 10:23N 40°52' E 029°11'0 0.0
2015-Jul-24 09:29N 40°52' E 029°11'0 0.0
2015-Jul-24 05:29N 40°52' E 029°11'0 0.1
2015-Jul-24 03:33N 40°52' E 029°11'7 7.1
2015-Jul-24 02:33N 40°46' E 029°17'8 7.3
2015-Jul-24 01:31N 40°45' E 029°27'  
2015-Jul-20 03:09N 44°56' E 029°56'4 6.1
2015-Jul-20 02:33N 44°60' E 029°57'  
Track history (hours):
 
Tides and Currents Weather Stations Pressure Air Temp Water Temp Dewpoint Dewpoint Depression Visibility Wind Speed Wind Dir Waves Ship Positions

M/V Tuna

Last reported at 2015-Jul-30 02:05 UTC. Time now 2015-Jul-30 14:14 UTC.
Position N 46°11' E 030°22'.

Length 114 m; draft 2.4 m.

Type: Cargo ship. MMSI: 514778000.

Date/timePositionNaut miles runAvg speedWind from/ knotsBaromVisibWave heightAir tempDewpointWater temp
2015-Jul-30 02:05N 46°11' E 030°22'0 0.0
2015-Jul-30 01:26N 46°11' E 030°22'0 0.0
2015-Jul-29 23:32N 46°11' E 030°22'0 0.0
2015-Jul-29 21:12N 46°11' E 030°22'  
2015-Jul-26 20:33N 44°54' E 029°55'9 6.8
2015-Jul-26 19:12N 44°46' E 029°51'12 7.0
2015-Jul-26 17:33N 44°34' E 029°48'224 5.5
2015-Jul-25 00:31N 40°52' E 029°11'0 0.0
2015-Jul-24 23:33N 40°52' E 029°11'0 0.0
2015-Jul-24 22:29N 40°52' E 029°11'0 0.0
2015-Jul-24 21:34N 40°52' E 029°11'0 0.0
2015-Jul-24 20:32N 40°52' E 029°11'0 0.0
2015-Jul-24 19:28N 40°52' E 029°11'0 0.0
2015-Jul-24 18:28N 40°52' E 029°11'0 0.0
2015-Jul-24 17:31N 40°52' E 029°11'0 0.0
2015-Jul-24 16:34N 40°52' E 029°11'0 0.0
2015-Jul-24 15:24N 40°52' E 029°11'0 0.0
2015-Jul-24 14:31N 40°52' E 029°11'0 0.0
2015-Jul-24 13:30N 40°52' E 029°11'0 0.1
2015-Jul-24 12:18N 40°52' E 029°11'0 0.0
2015-Jul-24 11:18N 40°52' E 029°11'0 0.0
2015-Jul-24 10:23N 40°52' E 029°11'0 0.0
2015-Jul-24 09:29N 40°52' E 029°11'0 0.0
2015-Jul-24 05:29N 40°52' E 029°11'0 0.1
2015-Jul-24 03:33N 40°52' E 029°11'7 7.1
2015-Jul-24 02:33N 40°46' E 029°17'8 7.3
2015-Jul-24 01:31N 40°45' E 029°27'  
2015-Jul-20 03:09N 44°56' E 029°56'4 6.1
2015-Jul-20 02:33N 44°60' E 029°57'  

Dump ship's entire track history